Time;durP1;ratioP1;P1;durP2;ratioP2;P2;SDS_P1;SDS_P2;PMS_P1;PMS_P2;Temp;Humidity;BMP_temperature;BMP_pressure;BME280_temperature;BME280_humidity;BME280_pressure;Samples;Min_cycle;Max_cycle;Signal;HPM_P1;HPM_P2
2022/05/19 00:03:27;;;;;;;2.25;1.90;;;;;;;18.89;50.87;97722.94;10299071;28;20050;-53
2022/05/19 00:08:46;;;;;;;2.60;1.98;;;;;;;18.89;51.18;97725.66;10291289;28;20067;-51
2022/05/19 00:14:05;;;;;;;2.70;2.17;;;;;;;18.89;51.02;97733.75;10294529;28;20066;-53
2022/05/19 00:19:26;;;;;;;2.92;1.85;;;;;;;18.89;50.89;97720.25;10289187;28;20062;-50
2022/05/19 00:24:45;;;;;;;3.17;2.00;;;;;;;18.88;50.88;97716.75;10302777;28;20379;-53
2022/05/19 00:30:05;;;;;;;3.08;2.03;;;;;;;18.89;50.81;97720.25;10289383;28;20062;-53
2022/05/19 00:35:24;;;;;;;2.33;2.13;;;;;;;18.89;50.75;97715.66;10293370;28;20422;-50
2022/05/19 00:40:46;;;;;;;2.65;2.03;;;;;;;18.88;50.99;97711.34;10290395;28;20063;-50
2022/05/19 00:46:09;;;;;;;2.60;1.73;;;;;;;18.88;50.95;97710.56;10302347;28;20054;-50
2022/05/19 00:51:37;;;;;;;2.35;1.90;;;;;;;18.89;50.97;97712.16;10287415;28;20069;-52
2022/05/19 00:57:01;;;;;;;2.72;1.92;;;;;;;18.86;51.03;97710.84;10272526;28;20070;-52
2022/05/19 01:02:25;;;;;;;2.55;1.92;;;;;;;18.87;50.87;97709.75;10288481;28;20043;-52
2022/05/19 01:07:50;;;;;;;2.20;1.83;;;;;;;18.87;50.98;97707.03;10274469;28;20466;-50
2022/05/19 01:13:13;;;;;;;;;;;;;;;18.87;50.98;97708.94;10287550;28;20059;-50
2022/05/19 01:18:35;;;;;;;1.95;1.80;;;;;;;18.86;50.97;97710.06;10283723;28;19929;-50
2022/05/19 01:24:16;;;;;;;1.90;1.58;;;;;;;18.86;50.82;97710.06;10281651;28;20524;-52
2022/05/19 01:29:35;;;;;;;1.88;1.65;;;;;;;18.85;50.79;97706.53;10274001;28;20066;-53
2022/05/19 01:34:57;;;;;;;2.55;1.63;;;;;;;18.88;50.77;97707.88;10286904;28;20047;-51
2022/05/19 01:40:48;;;;;;;2.30;1.65;;;;;;;18.84;50.84;97702.25;10287442;28;20080;-52
2022/05/19 01:46:26;;;;;;;2.10;1.45;;;;;;;18.86;50.79;97699.28;10268417;28;20055;-50
2022/05/19 01:52:29;;;;;;;1.70;1.60;;;;;;;18.86;50.71;97704.66;10285730;28;20059;-50
2022/05/19 01:58:00;;;;;;;1.73;1.60;;;;;;;18.85;50.72;97693.03;10274617;28;20201;-53
2022/05/19 02:03:35;;;;;;;2.42;1.60;;;;;;;18.86;50.78;97688.47;10286418;28;20573;-53
2022/05/19 02:08:59;;;;;;;1.60;1.40;;;;;;;18.84;50.77;97688.75;10287589;28;20114;-51
2022/05/19 02:14:22;;;;;;;2.03;1.70;;;;;;;18.83;50.68;97687.13;10242390;28;20471;-50
2022/05/19 02:19:47;;;;;;;1.55;1.38;;;;;;;18.84;50.77;97688.75;10233099;28;20110;-50
2022/05/19 02:25:28;;;;;;;1.92;1.80;;;;;;;18.84;50.54;97687.97;10232371;28;20055;-51
2022/05/19 02:30:48;;;;;;;1.63;1.50;;;;;;;18.82;50.69;97676.63;10246492;28;20055;-50
2022/05/19 02:36:09;;;;;;;1.60;1.50;;;;;;;18.83;50.57;97672.84;10246354;28;20072;-50
2022/05/19 02:41:29;;;;;;;1.67;1.55;;;;;;;18.82;50.56;97671.22;10246815;28;20561;-50
2022/05/19 02:46:48;;;;;;;1.42;1.33;;;;;;;18.81;50.60;97675.84;10243441;28;20055;-52
2022/05/19 02:52:07;;;;;;;1.60;1.50;;;;;;;18.82;50.50;97671.22;10259558;28;20047;-51
2022/05/19 02:57:26;;;;;;;1.50;1.38;;;;;;;18.81;50.66;97678.53;10244576;28;20059;-52
2022/05/19 03:02:47;;;;;;;1.83;1.52;;;;;;;18.81;50.61;97683.16;10249715;28;20054;-52
2022/05/19 03:08:07;;;;;;;1.40;1.30;;;;;;;18.82;50.51;97687.44;10266421;28;20540;-50
2022/05/19 03:13:26;;;;;;;1.48;1.38;;;;;;;18.81;50.54;97685.84;10264886;28;20105;-50
2022/05/19 03:18:46;;;;;;;1.42;1.27;;;;;;;18.81;50.55;97685.84;10291606;28;20062;-53
2022/05/19 03:24:05;;;;;;;2.05;1.50;;;;;;;18.80;50.52;97681.53;10293545;28;20086;-51
2022/05/19 03:29:25;;;;;;;1.50;1.40;;;;;;;18.80;50.61;97684.22;10293174;28;20121;-52
2022/05/19 03:34:45;;;;;;;1.70;1.30;;;;;;;18.80;50.55;97686.94;10291977;28;20078;-53
2022/05/19 03:40:06;;;;;;;1.73;1.42;;;;;;;18.79;50.55;97680.72;10278863;28;20059;-51
2022/05/19 03:45:26;;;;;;;1.40;1.30;;;;;;;18.78;50.35;97677.22;10291972;28;20059;-51
2022/05/19 03:50:46;;;;;;;1.40;1.30;;;;;;;18.78;50.33;97679.91;10293191;28;20061;-50
2022/05/19 03:56:05;;;;;;;1.33;1.20;;;;;;;18.79;50.39;97683.41;10289447;28;20059;-51
2022/05/19 04:01:26;;;;;;;1.42;1.25;;;;;;;18.81;50.44;97686.63;10290665;28;20058;-52
2022/05/19 04:06:46;;;;;;;3.05;1.42;;;;;;;18.86;50.55;97683.06;10301468;28;20091;-50
2022/05/19 04:12:06;;;;;;;1.50;1.40;;;;;;;-146.19;100.00;65364.44;10294065;28;20062;-53
2022/05/19 04:17:26;;;;;;;1.20;1.10;;;;;;;-146.19;100.00;65364.44;10291676;28;20086;-52
2022/05/19 04:22:45;;;;;;;1.40;1.30;;;;;;;18.92;50.57;97687.28;10293187;28;20051;-53
2022/05/19 04:28:05;;;;;;;1.50;1.40;;;;;;;18.91;49.46;97683.75;10301858;28;20062;-53
2022/05/19 04:33:24;;;;;;;2.85;1.10;;;;;;;18.92;48.21;97681.88;10287898;28;20054;-53
2022/05/19 04:38:43;;;;;;;1.42;1.20;;;;;;;18.90;47.48;97687.56;10289116;28;20114;-54
2022/05/19 04:44:03;;;;;;;3.22;1.33;;;;;;;-146.19;100.00;65364.44;10265922;28;20058;-50
2022/05/19 04:49:22;;;;;;;1.52;1.10;;;;;;;-146.19;100.00;65364.44;10287325;28;20104;-53
2022/05/19 04:54:42;;;;;;;1.58;1.15;;;;;;;-146.19;100.00;65364.44;10286943;28;20065;-51
2022/05/19 05:00:03;;;;;;;2.10;1.40;;;;;;;-146.19;100.00;65364.44;10289041;28;20430;-53
2022/05/19 05:05:23;;;;;;;2.90;1.60;;;;;;;-146.19;100.00;65364.44;10304676;28;20054;-51
2022/05/19 05:10:43;;;;;;;2.70;1.40;;;;;;;-146.19;100.00;65364.44;10289583;28;20075;-50
2022/05/19 05:16:03;;;;;;;4.72;1.50;;;;;;;-146.19;100.00;65364.44;10302479;28;20051;-52
2022/05/19 05:21:23;;;;;;;6.75;2.58;;;;;;;-146.19;100.00;65364.44;10262996;28;20058;-52
2022/05/19 05:26:42;;;;;;;9.32;2.42;;;;;;;-146.19;100.00;65364.44;10292155;28;20109;-52
2022/05/19 05:32:02;;;;;;;5.57;1.70;;;;;;;-146.19;100.00;65364.44;10261422;28;20109;-52
2022/05/19 05:37:22;;;;;;;3.25;1.65;;;;;;;-146.19;100.00;65364.44;10265100;28;20113;-51
2022/05/19 05:42:42;;;;;;;3.90;1.60;;;;;;;-146.19;100.00;65364.44;10289998;28;20055;-53
2022/05/19 05:48:01;;;;;;;3.53;1.70;;;;;;;-146.19;100.00;65364.44;10291655;28;20453;-52
2022/05/19 05:53:20;;;;;;;3.67;1.70;;;;;;;-146.19;100.00;65364.44;10302175;28;20054;-51
2022/05/19 05:58:40;;;;;;;3.72;1.50;;;;;;;-146.19;100.00;65364.44;10303219;28;20055;-50
2022/05/19 06:04:03;;;;;;;2.50;1.50;;;;;;;-146.19;100.00;65364.44;10285461;28;20371;-51
2022/05/19 06:09:23;;;;;;;4.38;1.50;;;;;;;-146.19;100.00;65364.44;10285570;28;20089;-53
2022/05/19 06:14:42;;;;;;;2.92;1.48;;;;;;;-146.19;100.00;65364.44;10287850;28;20059;-50
2022/05/19 06:20:02;;;;;;;2.65;1.40;;;;;;;-146.19;100.00;65364.44;10302127;28;20059;-49
2022/05/19 06:25:23;;;;;;;3.15;1.60;;;;;;;-146.19;100.00;65364.44;10289557;28;20050;-52
2022/05/19 06:30:43;;;;;;;4.25;1.42;;;;;;;-146.19;100.00;65364.44;10289026;28;20062;-51
2022/05/19 06:36:09;;;;;;;2.85;1.70;;;;;;;-146.19;100.00;65364.44;10291628;28;20101;-53
2022/05/19 06:47:28;;;;;;;2.47;1.67;;;;;;;-146.19;100.00;65364.44;10222726;28;20100;-52
2022/05/19 06:52:51;;;;;;;2.53;1.38;;;;;;;-146.19;100.00;65364.44;10285867;28;20066;-50
2022/05/19 06:58:11;;;;;;;2.80;1.45;;;;;;;-146.19;100.00;65364.44;10293157;28;20576;-49
2022/05/19 07:03:30;;;;;;;2.00;1.30;;;;;;;-146.19;100.00;65364.44;10295225;28;20065;-53
2022/05/19 07:08:50;;;;;;;2.58;1.20;;;;;;;-146.19;100.00;65364.44;10304683;28;20062;-51
2022/05/19 07:14:10;;;;;;;3.03;1.50;;;;;;;-146.19;100.00;65364.44;10294513;28;20055;-52
2022/05/19 07:25:08;;;;;;;3.00;1.40;;;;;;;-146.19;100.00;65364.44;10295226;28;20058;-50
2022/05/19 07:30:27;;;;;;;3.70;1.38;;;;;;;-146.19;100.00;65364.44;10288565;28;20395;-49
2022/05/19 07:35:47;;;;;;;2.47;1.30;;;;;;;-146.19;100.00;65364.44;10295336;28;20580;-52
2022/05/19 07:41:06;;;;;;;2.10;1.38;;;;;;;-146.19;100.00;65364.44;10295921;28;20367;-53
2022/05/19 07:46:29;;;;;;;3.58;1.25;;;;;;;-146.19;100.00;65364.44;10292562;28;20074;-50
2022/05/19 07:51:48;;;;;;;2.80;1.30;;;;;;;-146.19;100.00;65364.44;10293621;28;20105;-52
2022/05/19 07:57:08;;;;;;;2.20;1.13;;;;;;;18.90;47.48;97687.56;10295410;28;20166;-51
2022/05/19 08:02:27;;;;;;;1.77;1.25;;;;;;;18.68;47.38;97672.00;10300820;28;20153;-52
2022/05/19 08:07:46;;;;;;;2.70;1.40;;;;;;;18.68;47.51;97674.72;10284766;28;20621;-52
2022/05/19 08:18:44;;;;;;;1.83;1.20;;;;;;;18.69;47.61;97665.50;10334314;28;20555;-50
2022/05/19 08:24:03;;;;;;;1.45;1.10;;;;;;;18.69;47.66;97662.78;10318949;28;20070;-50
2022/05/19 08:29:23;;;;;;;1.98;1.20;;;;;;;18.69;47.82;97660.09;10294262;28;20058;-53
2022/05/19 08:34:43;;;;;;;1.60;1.20;;;;;;;18.69;47.67;97656.59;10306140;28;20054;-50
2022/05/19 08:40:02;;;;;;;3.22;1.10;;;;;;;18.70;47.78;97647.41;10306831;28;20058;-53
2022/05/19 08:45:30;;;;;;;1.23;1.00;;;;;;;18.70;47.89;97647.41;10333231;28;20054;-51
2022/05/19 08:50:58;;;;;;;1.38;1.10;;;;;;;18.70;48.12;97640.13;10332633;28;20533;-50
2022/05/19 08:56:28;;;;;;;1.40;1.10;;;;;;;18.70;48.12;97640.13;10332101;28;20126;-50
2022/05/19 09:01:54;;;;;;;2.53;1.20;;;;;;;18.71;48.14;97647.09;10287986;28;20156;-51
2022/05/19 09:13:37;;;;;;;1.75;0.95;;;;;;;18.71;48.36;97619.31;10259676;28;20063;-50
2022/05/19 09:19:04;;;;;;;1.85;1.15;;;;;;;18.71;48.46;97622.81;10237864;29;20067;-52
2022/05/19 09:24:24;;;;;;;1.55;0.90;;;;;;;18.71;48.43;97620.09;10268221;28;20054;-51
2022/05/19 09:29:52;;;;;;;1.23;1.00;;;;;;;18.72;48.52;97619.03;10292152;28;20062;-52
2022/05/19 09:35:27;;;;;;;1.27;1.10;;;;;;;18.71;48.51;97606.63;10291858;28;20114;-50
2022/05/19 09:40:48;;;;;;;1.48;0.93;;;;;;;18.72;48.64;97612.84;10291118;28;20084;-52
2022/05/19 09:46:14;;;;;;;1.30;1.02;;;;;;;18.72;48.68;97602.84;10291857;28;20113;-53
2022/05/19 09:51:42;;;;;;;1.58;1.20;;;;;;;18.71;48.68;97601.22;10291639;28;20061;-50
2022/05/19 09:57:06;;;;;;;1.83;1.10;;;;;;;18.72;48.61;97594.72;10297445;28;20089;-52
2022/05/19 10:02:32;;;;;;;1.15;0.85;;;;;;;18.72;48.71;97597.44;10290025;28;20457;-52
2022/05/19 10:07:57;;;;;;;1.55;1.00;;;;;;;18.73;48.82;97598.22;10291416;28;20105;-51
2022/05/19 10:13:17;;;;;;;1.33;1.13;;;;;;;18.72;48.86;97589.34;10298619;28;20549;-51
2022/05/19 10:19:07;;;;;;;1.10;0.90;;;;;;;18.73;48.85;97588.22;10312220;28;20548;-53
2022/05/19 10:24:38;;;;;;;1.45;0.98;;;;;;;18.73;48.93;97587.44;10298976;28;20054;-51
2022/05/19 10:36:16;;;;;;;1.05;0.90;;;;;;;18.73;48.87;97565.84;10298584;28;20523;-52
2022/05/19 10:41:45;;;;;;;1.65;1.15;;;;;;;18.72;48.95;97551.56;10296889;28;20054;-53
2022/05/19 10:47:33;;;;;;;0.90;0.73;;;;;;;18.73;48.98;97547.72;10298163;28;20054;-50
2022/05/19 10:53:26;;;;;;;1.08;0.80;;;;;;;18.74;49.15;97543.94;10290129;28;20121;-52
2022/05/19 10:59:25;;;;;;;1.17;0.98;;;;;;;18.74;49.13;97533.16;10298907;28;20105;-51
2022/05/19 11:05:27;;;;;;;1.23;0.80;;;;;;;18.74;49.25;97514.25;10310078;28;20055;-51
2022/05/19 11:11:08;;;;;;;1.20;0.90;;;;;;;18.74;49.11;97511.56;10282277;28;20517;-52
2022/05/19 11:16:46;;;;;;;1.60;1.10;;;;;;;18.74;49.24;97503.47;10297197;28;20065;-52
2022/05/19 11:22:11;;;;;;;0.93;0.80;;;;;;;18.75;49.21;97504.25;10281682;28;20113;-49
2022/05/19 11:27:38;;;;;;;1.05;0.82;;;;;;;18.75;49.21;97499.66;10282257;28;20441;-51
2022/05/19 11:33:01;;;;;;;1.20;0.80;;;;;;;18.76;49.25;97489.66;10282194;28;20106;-52
2022/05/19 11:38:28;;;;;;;0.90;0.77;;;;;;;18.75;49.37;97488.84;10309273;28;20055;-50
2022/05/19 11:43:54;;;;;;;1.02;0.90;;;;;;;18.75;49.40;97483.44;10281290;28;20061;-51
2022/05/19 11:55:13;;;;;;;1.00;0.88;;;;;;;18.77;49.34;97472.34;10283141;28;20055;-50
2022/05/19 12:00:41;;;;;;;1.08;0.90;;;;;;;18.76;49.46;97474.25;10298284;28;20058;-50
2022/05/19 12:06:12;;;;;;;1.73;1.10;;;;;;;18.76;49.51;97460.78;10295475;28;20061;-52
2022/05/19 12:11:40;;;;;;;1.17;1.00;;;;;;;18.77;49.50;97458.88;10306052;28;20051;-50
2022/05/19 12:17:00;;;;;;;2.05;0.90;;;;;;;18.77;49.57;97451.56;10307927;28;20078;-50
2022/05/19 12:22:34;;;;;;;0.90;0.80;;;;;;;18.78;49.53;97447.78;10294026;28;20074;-52
2022/05/19 12:27:57;;;;;;;0.88;0.80;;;;;;;18.77;49.59;97443.47;10294446;28;20065;-50
2022/05/19 12:33:25;;;;;;;0.95;0.80;;;;;;;18.79;49.62;97435.06;10294112;28;20383;-50
2022/05/19 12:38:45;;;;;;;0.98;0.88;;;;;;;18.78;49.53;97433.47;10306902;28;20118;-51
2022/05/19 12:44:39;;;;;;;1.33;0.80;;;;;;;18.78;49.73;97439.66;10293643;28;20121;-53
2022/05/19 12:50:01;;;;;;;0.95;0.90;;;;;;;18.80;49.65;97438.59;10306577;28;20054;-51
2022/05/19 12:55:26;;;;;;;0.70;0.70;;;;;;;18.81;49.59;97424.00;10292726;28;20051;-52
2022/05/19 13:00:45;;;;;;;0.90;0.77;;;;;;;18.81;49.92;97422.09;10309502;28;20062;-50
2022/05/19 13:06:12;;;;;;;1.30;0.85;;;;;;;18.81;49.88;97416.69;10292958;28;20055;-52
2022/05/19 13:11:35;;;;;;;0.77;0.77;;;;;;;18.81;49.99;97405.91;10303844;28;20050;-51
2022/05/19 13:16:55;;;;;;;0.77;0.70;;;;;;;18.83;49.83;97411.00;10278084;28;20063;-52
2022/05/19 13:22:27;;;;;;;0.80;0.70;;;;;;;18.83;49.88;97411.78;10277501;28;20059;-53
2022/05/19 13:33:35;;;;;;;1.45;1.00;;;;;;;18.76;49.51;97409.50;10269728;28;20055;-50
2022/05/19 13:39:14;;;;;;;1.50;0.97;;;;;;;18.77;50.15;97394.88;10289804;28;20069;-53
2022/05/19 13:44:41;;;;;;;;;;;;;;;18.80;49.95;97381.91;10290305;28;20062;-50
2022/05/19 13:50:09;;;;;;;0.77;0.77;;;;;;;18.77;49.63;97377.88;10294564;28;19926;-50
2022/05/19 13:55:36;;;;;;;0.80;0.80;;;;;;;18.77;49.83;97375.97;10296411;28;20063;-52
2022/05/19 14:00:55;;;;;;;1.08;0.90;;;;;;;18.80;50.06;97363.81;10311954;28;20059;-51
2022/05/19 14:06:18;;;;;;;2.15;0.80;;;;;;;18.78;49.58;97358.69;10304849;28;20063;-52
2022/05/19 14:11:38;;;;;;;1.52;0.88;;;;;;;18.80;49.57;97357.59;10290023;28;20050;-53
2022/05/19 14:16:57;;;;;;;0.80;0.73;;;;;;;18.80;49.57;97357.59;10304673;28;20568;-53
2022/05/19 14:22:18;;;;;;;0.70;0.70;;;;;;;18.90;50.04;97339.28;10292152;28;20069;-50
2022/05/19 14:27:39;;;;;;;1.02;0.70;;;;;;;18.96;50.00;97342.66;10293383;28;20062;-53
2022/05/19 14:33:03;;;;;;;1.10;0.82;;;;;;;18.99;49.89;97331.22;10274710;28;20568;-53
2022/05/19 14:38:34;;;;;;;1.40;0.80;;;;;;;19.05;49.66;97319.22;10290196;28;20058;-53
2022/05/19 14:44:03;;;;;;;0.98;0.90;;;;;;;19.02;49.61;97319.84;10288744;28;20051;-53
2022/05/19 14:49:23;;;;;;;0.77;0.70;;;;;;;18.97;49.20;97309.16;10306414;28;20101;-51
2022/05/19 14:54:42;;;;;;;1.95;0.70;;;;;;;18.94;48.73;97302.47;10282060;28;20250;-49
2022/05/19 15:00:03;;;;;;;2.28;0.80;;;;;;;18.95;48.48;97301.38;10305730;28;20050;-49
2022/05/19 15:05:24;;;;;;;2.53;1.27;;;;;;;18.94;48.30;97304.38;10294415;28;20066;-51
2022/05/19 15:10:44;;;;;;;0.68;0.68;;;;;;;18.95;47.56;97297.84;10303135;28;20106;-53
2022/05/19 15:16:03;;;;;;;0.82;0.80;;;;;;;19.01;46.92;97295.84;10301302;28;20091;-52
2022/05/19 15:21:23;;;;;;;1.75;0.80;;;;;;;18.99;47.22;97288.03;10293008;28;20102;-53
2022/05/19 15:26:44;;;;;;;2.83;0.85;;;;;;;19.00;47.44;97283.44;10293518;28;20051;-52
2022/05/19 15:32:03;;;;;;;1.70;0.70;;;;;;;18.98;47.51;97278.34;10297214;28;20425;-53
2022/05/19 15:37:23;;;;;;;1.13;0.70;;;;;;;18.99;47.71;97282.63;10307152;28;20058;-51
2022/05/19 15:42:43;;;;;;;0.95;0.95;;;;;;;18.99;47.93;97273.75;10290925;28;20481;-52
2022/05/19 15:48:04;;;;;;;2.15;0.80;;;;;;;19.00;47.95;97270.75;10290529;28;20078;-53
2022/05/19 15:53:24;;;;;;;0.70;0.70;;;;;;;19.07;47.98;97257.59;10290650;28;20502;-51
2022/05/19 15:58:43;;;;;;;1.88;0.65;;;;;;;19.17;47.73;97262.72;10330819;28;20054;-50
2022/05/19 16:04:02;;;;;;;0.85;0.63;;;;;;;19.22;47.74;97274.50;10285465;28;20054;-52
2022/05/19 16:09:22;;;;;;;0.82;0.73;;;;;;;19.24;47.71;97259.56;10291755;28;20059;-50
2022/05/19 16:14:42;;;;;;;1.05;0.73;;;;;;;19.23;47.59;97254.47;10294372;28;20046;-53
2022/05/19 16:20:03;;;;;;;1.23;0.70;;;;;;;19.27;47.57;97245.47;10292547;28;20501;-50
2022/05/19 16:25:25;;;;;;;2.70;0.85;;;;;;;19.31;47.43;97240.25;10305864;28;20498;-50
2022/05/19 16:30:45;;;;;;;0.90;0.80;;;;;;;19.37;47.58;97233.59;10295542;28;20486;-50
2022/05/19 16:36:05;;;;;;;1.25;0.80;;;;;;;19.33;47.38;97225.31;10291574;28;20054;-52
2022/05/19 16:41:25;;;;;;;0.73;0.60;;;;;;;19.30;47.55;97233.22;10303681;28;20114;-53
2022/05/19 16:46:45;;;;;;;1.17;0.80;;;;;;;19.25;47.89;97231.47;10290959;28;20050;-53
2022/05/19 16:52:04;;;;;;;1.17;0.80;;;;;;;19.23;47.98;97227.47;10250443;29;20098;-52
2022/05/19 16:57:43;;;;;;;1.70;0.88;;;;;;;19.22;48.16;97225.91;10273272;28;20069;-51
2022/05/19 17:03:03;;;;;;;;;;;;;;;19.20;48.21;97223.50;10293067;28;20062;-51
2022/05/19 17:08:29;;;;;;;1.17;0.70;;;;;;;19.20;48.27;97233.50;10291338;28;19922;-50
2022/05/19 17:13:49;;;;;;;0.60;0.60;;;;;;;19.19;48.47;97231.91;10283245;28;20578;-52
2022/05/19 17:19:09;;;;;;;1.73;0.80;;;;;;;19.17;48.54;97240.34;10287389;28;20151;-51
2022/05/19 17:24:29;;;;;;;1.73;0.63;;;;;;;19.22;48.46;97231.28;10283479;28;20063;-51
2022/05/19 17:29:48;;;;;;;1.05;0.90;;;;;;;19.24;48.66;97231.78;10286719;28;20061;-50
2022/05/19 17:35:09;;;;;;;3.53;0.80;;;;;;;19.22;48.73;97236.69;10304236;28;20047;-51
2022/05/19 17:40:29;;;;;;;3.40;0.80;;;;;;;19.23;49.39;97233.69;10293778;28;20097;-51
2022/05/19 17:45:48;;;;;;;2.38;0.90;;;;;;;19.21;49.62;97246.72;10284524;28;20061;-52
2022/05/19 17:51:09;;;;;;;3.33;0.90;;;;;;;19.21;49.76;97240.50;10295691;28;20051;-53
2022/05/19 17:56:29;;;;;;;1.70;1.00;;;;;;;19.23;50.39;97249.06;10291849;28;20055;-52
2022/05/19 18:01:48;;;;;;;22.42;10.27;;;;;;;19.28;51.65;97246.25;10309570;28;20069;-53
2022/05/19 18:07:08;;;;;;;9.02;4.50;;;;;;;19.26;50.91;97254.66;10297474;28;20069;-52
2022/05/19 18:12:27;;;;;;;5.32;2.70;;;;;;;19.23;49.72;97254.47;10297681;28;20055;-53
2022/05/19 18:23:28;;;;;;;4.33;1.60;;;;;;;19.18;48.93;97277.03;10275236;28;20066;-50
2022/05/19 18:28:50;;;;;;;1.52;1.30;;;;;;;19.16;48.73;97271.13;10288769;28;20494;-53
2022/05/19 18:34:09;;;;;;;3.03;1.48;;;;;;;19.12;48.53;97265.56;10298324;28;20117;-53
2022/05/19 18:39:28;;;;;;;3.28;1.48;;;;;;;19.12;48.47;97270.16;10298752;28;20065;-51
2022/05/19 18:44:52;;;;;;;2.28;1.40;;;;;;;19.09;48.39;97270.78;10296455;28;20410;-53
2022/05/19 18:50:11;;;;;;;2.40;1.25;;;;;;;19.08;48.28;97283.50;10295961;28;20093;-53
2022/05/19 18:55:32;;;;;;;1.50;1.23;;;;;;;19.06;47.96;97288.41;10304504;28;20062;-53
2022/05/19 19:00:52;;;;;;;1.90;1.25;;;;;;;19.05;47.77;97292.22;10294642;28;20050;-54
2022/05/19 19:06:14;;;;;;;3.15;1.40;;;;;;;19.02;47.84;97286.63;10306617;28;20046;-53
2022/05/19 19:11:34;;;;;;;2.47;1.30;;;;;;;19.01;47.77;97269.63;10315174;28;20477;-53
2022/05/19 19:16:53;;;;;;;4.57;1.42;;;;;;;18.99;47.92;97273.75;10298375;28;20051;-54
2022/05/19 19:22:12;;;;;;;2.05;1.40;;;;;;;18.99;47.92;97273.75;10293786;28;20058;-54
2022/05/19 19:27:33;;;;;;;4.60;2.00;;;;;;;18.98;48.28;97275.66;10295360;28;20204;-53
2022/05/19 19:32:52;;;;;;;5.65;1.95;;;;;;;19.02;49.03;97284.72;10305593;28;20047;-52
2022/05/19 19:38:11;;;;;;;9.40;2.67;;;;;;;19.06;49.22;97293.00;10282428;28;20070;-55
2022/05/19 19:43:31;;;;;;;9.32;2.80;;;;;;;19.09;49.40;97292.38;10306341;28;20059;-50
2022/05/19 19:48:50;;;;;;;10.00;2.83;;;;;;;19.08;49.59;97302.38;10313073;28;20051;-50
2022/05/19 19:54:10;;;;;;;8.27;2.75;;;;;;;19.08;49.92;97299.69;10292344;28;20062;-50
2022/05/19 19:59:32;;;;;;;8.68;2.72;;;;;;;19.12;50.99;97297.97;10283575;28;20117;-49
2022/05/19 20:04:52;;;;;;;5.35;2.30;;;;;;;19.17;51.29;97305.16;10306161;28;20062;-52
2022/05/19 20:10:15;;;;;;;5.25;2.40;;;;;;;19.19;51.32;97299.44;10290673;28;20058;-51
2022/05/19 20:15:35;;;;;;;7.82;2.58;;;;;;;19.22;51.69;97299.59;10292403;28;20058;-52
2022/05/19 20:20:54;;;;;;;5.68;2.10;;;;;;;19.25;51.73;97300.88;10291530;28;20080;-50
2022/05/19 20:26:15;;;;;;;6.45;2.35;;;;;;;19.26;51.94;97297.88;10292294;28;20062;-51
2022/05/19 20:31:34;;;;;;;6.50;2.65;;;;;;;19.26;52.08;97280.88;10305628;28;20098;-52
2022/05/19 20:36:54;;;;;;;6.88;2.40;;;;;;;19.26;52.25;97283.59;10293514;28;20058;-52
2022/05/19 20:42:14;;;;;;;5.95;2.35;;;;;;;19.25;52.23;97269.28;10295570;28;20108;-52
2022/05/19 20:47:33;;;;;;;8.48;2.40;;;;;;;19.26;52.42;97278.97;10303722;28;20054;-49
2022/05/19 20:52:53;;;;;;;5.25;2.28;;;;;;;19.26;52.56;97265.47;10292483;28;20054;-50
2022/05/19 20:58:12;;;;;;;3.42;2.13;;;;;;;19.26;52.63;97270.06;10286830;28;20078;-53
2022/05/19 21:03:33;;;;;;;6.38;2.10;;;;;;;19.27;52.75;97275.19;10285833;28;20050;-53
2022/05/19 21:08:52;;;;;;;3.47;2.25;;;;;;;19.28;52.83;97275.97;10287842;28;20074;-50
2022/05/19 21:14:12;;;;;;;5.03;2.20;;;;;;;19.27;52.82;97283.28;10303633;28;20058;-50
2022/05/19 21:19:31;;;;;;;4.20;2.00;;;;;;;19.28;52.81;97289.47;10285965;28;20066;-51
2022/05/19 21:30:29;;;;;;;4.30;2.08;;;;;;;19.28;53.01;97303.78;10290656;28;20105;-52
2022/05/19 21:35:49;;;;;;;4.45;2.05;;;;;;;19.29;52.87;97296.47;10308730;28;20042;-53
2022/05/19 21:41:09;;;;;;;3.70;1.92;;;;;;;19.28;52.88;97303.78;10292100;28;20118;-51
2022/05/19 21:46:29;;;;;;;3.97;2.08;;;;;;;19.30;53.11;97304.25;10281608;28;20063;-50
2022/05/19 21:57:36;;;;;;;2.60;1.80;;;;;;;19.28;52.87;97321.88;10308026;28;20120;-51
2022/05/19 22:02:56;;;;;;;;;;;;;;;19.24;52.79;97326.31;10300755;28;20557;-52
2022/05/19 22:08:16;;;;;;;4.18;1.90;;;;;;;19.24;52.59;97326.31;10291262;28;19930;-53
2022/05/19 22:13:35;;;;;;;3.55;1.70;;;;;;;19.22;52.35;97317.72;10307460;28;20493;-51
2022/05/19 22:18:55;;;;;;;1.88;1.52;;;;;;;19.21;52.08;97321.53;10298743;28;20059;-54
2022/05/19 22:24:14;;;;;;;4.32;1.65;;;;;;;19.19;51.88;97319.16;10289507;28;20109;-53
2022/05/19 22:29:33;;;;;;;2.20;1.60;;;;;;;19.19;51.95;97335.34;10290220;28;20114;-53
2022/05/19 22:34:53;;;;;;;3.30;1.70;;;;;;;19.20;51.69;97330.75;10302978;28;20043;-50
2022/05/19 22:40:12;;;;;;;2.65;1.60;;;;;;;19.19;51.88;97361.53;10288787;28;20474;-50
2022/05/19 22:45:32;;;;;;;1.98;1.70;;;;;;;19.19;51.73;97410.97;10288577;28;20055;-53
2022/05/19 22:50:51;;;;;;;2.90;1.60;;;;;;;19.20;51.68;97401.75;10319634;28;20094;-52
2022/05/19 22:56:11;;;;;;;3.67;1.90;;;;;;;19.19;51.62;97399.34;10287303;28;20043;-50
2022/05/19 23:01:30;;;;;;;2.17;1.40;;;;;;;19.19;51.79;97389.38;10302226;28;20047;-51
2022/05/19 23:06:51;;;;;;;1.55;1.45;;;;;;;19.19;51.59;97389.38;10289417;28;20085;-52
2022/05/19 23:12:11;;;;;;;3.08;1.45;;;;;;;19.17;51.70;97391.59;10273326;28;20131;-52
2022/05/19 23:17:30;;;;;;;2.95;1.67;;;;;;;19.17;51.66;97375.38;10290724;28;20082;-53
2022/05/19 23:22:50;;;;;;;1.92;1.40;;;;;;;19.17;51.71;97378.88;10280927;28;20502;-51
2022/05/19 23:28:10;;;;;;;2.47;1.50;;;;;;;19.18;51.63;97387.75;10295613;28;20082;-52
2022/05/19 23:33:29;;;;;;;3.60;1.58;;;;;;;19.16;51.50;97415.06;10294599;28;20474;-53
2022/05/19 23:38:49;;;;;;;1.90;1.58;;;;;;;19.17;51.46;97440.19;10295166;28;20526;-52
2022/05/19 23:44:09;;;;;;;2.25;1.50;;;;;;;19.16;51.39;97444.78;10295715;28;20062;-50
2022/05/19 23:49:29;;;;;;;2.85;1.50;;;;;;;19.14;51.37;97436.19;10295267;28;20086;-53
2022/05/19 23:54:48;;;;;;;2.00;1.38;;;;;;;19.13;51.42;97434.63;10304569;28;20051;-51
